createdAt,value
2017-10-30T00:00:43.125Z,0
2017-10-30T00:01:43.096Z,0
2017-10-30T00:02:43.166Z,0
2017-10-30T00:03:43.192Z,0
2017-10-30T00:04:43.149Z,1.8
2017-10-30T00:05:43.091Z,0
2017-10-30T00:06:43.121Z,0
2017-10-30T00:07:43.132Z,0
2017-10-30T00:08:43.214Z,0
2017-10-30T00:09:43.122Z,1.8
2017-10-30T00:10:43.118Z,0
2017-10-30T00:11:43.150Z,0
2017-10-30T00:12:43.141Z,1.8
2017-10-30T00:13:43.181Z,1.8
2017-10-30T00:14:43.113Z,3.9
2017-10-30T00:15:43.100Z,3.9
2017-10-30T00:16:43.140Z,1.8
2017-10-30T00:17:43.101Z,1.8
2017-10-30T00:18:43.276Z,1.8
2017-10-30T00:19:43.163Z,0
2017-10-30T00:20:43.192Z,0
2017-10-30T00:21:43.146Z,1.8
2017-10-30T00:22:43.116Z,1.8
2017-10-30T00:23:43.179Z,0
2017-10-30T00:24:43.122Z,0
2017-10-30T00:25:43.131Z,3.9
2017-10-30T00:26:43.145Z,1.8
2017-10-30T00:27:43.137Z,9.5
2017-10-30T00:28:43.148Z,3.9
2017-10-30T00:29:43.139Z,0
2017-10-30T00:30:43.104Z,1.8
2017-10-30T00:31:43.128Z,1.8
2017-10-30T00:32:43.101Z,1.8
2017-10-30T00:33:43.224Z,3.9
2017-10-30T00:34:43.164Z,1.8
2017-10-30T00:35:43.107Z,1.8
2017-10-30T00:36:43.114Z,1.8
2017-10-30T00:37:43.122Z,1.8
2017-10-30T00:38:43.162Z,0
2017-10-30T00:39:43.111Z,0
2017-10-30T00:40:43.103Z,1.8
2017-10-30T00:41:43.096Z,1.8
2017-10-30T00:42:43.112Z,0
2017-10-30T00:43:43.184Z,0
2017-10-30T00:44:43.130Z,1.8
2017-10-30T00:45:43.153Z,0
2017-10-30T00:46:43.096Z,0
2017-10-30T00:47:43.098Z,0
2017-10-30T00:48:43.157Z,0
2017-10-30T00:49:43.104Z,0
2017-10-30T00:50:43.557Z,0
2017-10-30T00:51:43.068Z,0
2017-10-30T00:52:43.146Z,0
2017-10-30T00:53:43.270Z,0
2017-10-30T00:54:43.114Z,0
2017-10-30T00:55:43.115Z,0
2017-10-30T00:56:43.123Z,0
2017-10-30T00:57:43.146Z,0
2017-10-30T00:58:43.157Z,0
2017-10-30T00:59:43.118Z,0
2017-10-30T01:00:43.093Z,0
2017-10-30T01:01:43.099Z,0
2017-10-30T01:02:43.144Z,1.8
2017-10-30T01:03:43.099Z,0
2017-10-30T01:04:43.098Z,3.9
2017-10-30T01:05:43.114Z,1.8
2017-10-30T01:06:43.127Z,1.8
2017-10-30T01:07:43.154Z,0
2017-10-30T01:08:43.070Z,0
2017-10-30T01:09:43.115Z,3.9
2017-10-30T01:10:43.076Z,3.9
2017-10-30T01:11:43.116Z,0
2017-10-30T01:12:43.130Z,3.9
2017-10-30T01:13:43.091Z,1.8
2017-10-30T01:14:43.135Z,1.8
2017-10-30T01:15:43.111Z,0
2017-10-30T01:16:43.078Z,1.8
2017-10-30T01:17:43.119Z,0
2017-10-30T01:18:43.094Z,0
2017-10-30T01:19:43.180Z,3.9
2017-10-30T01:20:43.068Z,6.6
2017-10-30T01:21:43.124Z,1.8
2017-10-30T01:22:43.103Z,6.6
2017-10-30T01:23:43.084Z,6.6
2017-10-30T01:24:43.162Z,0
2017-10-30T01:25:43.105Z,0
2017-10-30T01:26:43.118Z,1.8
2017-10-30T01:27:43.102Z,1.8
2017-10-30T01:28:43.086Z,1.8
2017-10-30T01:29:43.158Z,1.8
2017-10-30T01:30:43.084Z,1.8
2017-10-30T01:31:43.123Z,0
2017-10-30T01:32:43.095Z,0
2017-10-30T01:33:43.075Z,0
2017-10-30T01:34:43.156Z,0
2017-10-30T01:35:43.071Z,0
2017-10-30T01:36:43.096Z,0
2017-10-30T01:37:43.089Z,9.5
2017-10-30T01:38:43.119Z,3.9
2017-10-30T01:39:43.203Z,3.9
2017-10-30T01:40:43.089Z,3.9
2017-10-30T01:41:43.111Z,6.6
2017-10-30T01:42:43.075Z,9.5
2017-10-30T01:43:43.124Z,6.6
2017-10-30T01:44:43.173Z,3.9
2017-10-30T01:45:43.091Z,3.9
2017-10-30T01:46:43.086Z,3.9
2017-10-30T01:47:43.116Z,9.5
2017-10-30T01:48:43.057Z,18.3
2017-10-30T01:49:43.175Z,3.9
2017-10-30T01:50:43.070Z,6.6
2017-10-30T01:51:43.113Z,9.5
2017-10-30T01:52:43.097Z,9.5
2017-10-30T01:53:43.104Z,6.6
2017-10-30T01:54:43.112Z,1.8
2017-10-30T01:55:43.119Z,1.8
2017-10-30T01:56:43.082Z,0
2017-10-30T01:57:43.096Z,0
2017-10-30T01:58:43.073Z,0
2017-10-30T01:59:43.147Z,0
2017-10-30T02:00:43.062Z,0
2017-10-30T02:01:43.054Z,0
2017-10-30T02:02:43.057Z,0
2017-10-30T02:03:43.082Z,1.8
2017-10-30T02:04:43.121Z,0
2017-10-30T02:05:43.149Z,0
2017-10-30T02:06:43.093Z,0
2017-10-30T02:07:43.057Z,0
2017-10-30T02:08:43.043Z,0
2017-10-30T02:09:43.143Z,3.9
2017-10-30T02:10:43.073Z,0
2017-10-30T02:11:43.042Z,0
2017-10-30T02:12:43.067Z,0
2017-10-30T02:13:43.079Z,0
2017-10-30T02:14:43.123Z,0
2017-10-30T02:15:43.078Z,0
2017-10-30T02:16:43.037Z,6.6
2017-10-30T02:17:43.100Z,0
2017-10-30T02:18:43.105Z,3.9
2017-10-30T02:19:43.158Z,1.8
2017-10-30T02:20:43.057Z,0
2017-10-30T02:21:43.058Z,0
2017-10-30T02:22:43.076Z,0
2017-10-30T02:23:43.092Z,1.8
2017-10-30T02:24:43.145Z,0
2017-10-30T02:25:43.109Z,0
2017-10-30T02:26:43.090Z,3.9
2017-10-30T02:27:43.105Z,1.8
2017-10-30T02:28:43.082Z,0
2017-10-30T02:29:43.128Z,0
2017-10-30T02:30:43.067Z,0
2017-10-30T02:31:43.065Z,0
2017-10-30T02:32:43.063Z,0
2017-10-30T02:33:43.041Z,0
2017-10-30T02:34:43.103Z,0
2017-10-30T02:35:43.071Z,0
2017-10-30T02:36:43.085Z,0
2017-10-30T02:37:43.064Z,0
2017-10-30T02:38:43.046Z,0
2017-10-30T02:39:43.084Z,0
2017-10-30T02:40:43.061Z,0
2017-10-30T02:41:43.038Z,0
2017-10-30T02:42:43.076Z,0
2017-10-30T02:43:43.066Z,0
2017-10-30T02:44:43.074Z,6.6
2017-10-30T02:45:43.036Z,1.8
2017-10-30T02:46:43.072Z,0
2017-10-30T02:47:43.022Z,1.8
2017-10-30T02:48:43.053Z,3.9
2017-10-30T02:49:43.047Z,6.6
2017-10-30T02:50:43.115Z,0
2017-10-30T02:51:43.064Z,3.9
2017-10-30T02:52:43.070Z,6.6
2017-10-30T02:53:43.125Z,3.9
2017-10-30T02:54:43.060Z,9.5
2017-10-30T02:55:43.096Z,1.8
2017-10-30T02:56:43.058Z,6.6
2017-10-30T02:57:43.079Z,6.6
2017-10-30T02:58:43.037Z,9.5
2017-10-30T02:59:43.047Z,9.5
2017-10-30T03:00:43.084Z,1.8
2017-10-30T03:01:43.044Z,1.8
2017-10-30T03:02:43.053Z,0
2017-10-30T03:03:43.033Z,1.8
2017-10-30T03:04:43.073Z,6.6
2017-10-30T03:05:43.104Z,0
2017-10-30T03:06:43.023Z,0
2017-10-30T03:07:43.030Z,0
2017-10-30T03:08:43.013Z,0
2017-10-30T03:09:43.021Z,0
2017-10-30T03:10:43.141Z,0
2017-10-30T03:11:43.016Z,0
2017-10-30T03:12:43.039Z,0
2017-10-30T03:13:43.068Z,0
2017-10-30T03:14:43.021Z,0
2017-10-30T03:15:43.142Z,0
2017-10-30T03:16:43.037Z,0
2017-10-30T03:17:43.046Z,0
2017-10-30T03:18:43.065Z,0
2017-10-30T03:19:43.043Z,0
2017-10-30T03:20:43.111Z,0
2017-10-30T03:21:43.033Z,0
2017-10-30T03:22:43.045Z,0
2017-10-30T03:23:43.055Z,0
2017-10-30T03:24:43.029Z,0
2017-10-30T03:25:43.063Z,0
2017-10-30T03:26:43.004Z,0
2017-10-30T03:27:43.042Z,0
2017-10-30T03:28:43.010Z,0
2017-10-30T03:29:43.066Z,0
2017-10-30T03:30:43.061Z,0
2017-10-30T03:31:43.024Z,6.6
2017-10-30T03:32:43.037Z,1.8
2017-10-30T03:33:43.019Z,3.9
2017-10-30T03:34:43.006Z,1.8
2017-10-30T03:35:43.033Z,1.8
2017-10-30T03:36:43.007Z,6.6
2017-10-30T03:37:43.055Z,1.8
2017-10-30T03:38:43.023Z,3.9
2017-10-30T03:39:43.013Z,6.6
2017-10-30T03:40:43.001Z,1.8
2017-10-30T03:41:43.032Z,0
2017-10-30T03:42:43.004Z,1.8
2017-10-30T03:43:43.020Z,3.9
2017-10-30T03:44:43.060Z,1.8
2017-10-30T03:45:43.044Z,1.8
2017-10-30T03:46:43.030Z,1.8
2017-10-30T03:47:43.018Z,9.5
2017-10-30T03:48:43.014Z,6.6
2017-10-30T03:49:43.011Z,3.9
2017-10-30T03:50:43.055Z,6.6
2017-10-30T03:51:43.006Z,3.9
2017-10-30T03:52:43.030Z,3.9
2017-10-30T03:53:43.016Z,0
2017-10-30T03:54:43.026Z,1.8
2017-10-30T03:55:43.033Z,6.6
2017-10-30T03:56:43.047Z,1.8
2017-10-30T03:57:43.018Z,6.6
2017-10-30T03:58:43.025Z,3.9
2017-10-30T03:59:42.995Z,1.8
2017-10-30T04:00:43.052Z,6.6
2017-10-30T04:01:43.085Z,3.9
2017-10-30T04:02:43.025Z,3.9
2017-10-30T04:03:43.033Z,9.5
2017-10-30T04:04:43.076Z,1.8
2017-10-30T04:05:42.981Z,1.8
2017-10-30T04:06:43.076Z,0
2017-10-30T04:07:43.010Z,1.8
2017-10-30T04:08:43.032Z,6.6
2017-10-30T04:09:43.009Z,0
2017-10-30T04:10:42.997Z,0
2017-10-30T04:11:43.058Z,6.6
2017-10-30T04:12:43.016Z,1.8
2017-10-30T04:13:42.999Z,0
2017-10-30T04:14:43.016Z,1.8
2017-10-30T04:15:42.988Z,3.9
2017-10-30T04:16:43.101Z,0
2017-10-30T04:17:42.987Z,1.8
2017-10-30T04:18:42.994Z,3.9
2017-10-30T04:19:43.065Z,6.6
2017-10-30T04:20:43.006Z,1.8
2017-10-30T04:21:43.125Z,1.8
2017-10-30T04:22:43.015Z,1.8
2017-10-30T04:23:42.991Z,6.6
2017-10-30T04:24:43.014Z,1.8
2017-10-30T04:25:43.029Z,6.6
2017-10-30T04:26:43.068Z,0
2017-10-30T04:27:42.997Z,0
2017-10-30T04:28:42.998Z,0
2017-10-30T04:29:42.979Z,3.9
2017-10-30T04:30:42.981Z,3.9
2017-10-30T04:31:42.987Z,3.9
2017-10-30T04:32:42.989Z,6.6
2017-10-30T04:33:42.976Z,3.9
2017-10-30T04:34:43.001Z,6.6
2017-10-30T04:35:42.971Z,3.9
2017-10-30T04:36:43.019Z,6.6
2017-10-30T04:37:43.000Z,3.9
2017-10-30T04:38:42.979Z,3.9
2017-10-30T04:39:43.021Z,3.9
2017-10-30T04:40:42.993Z,6.6
2017-10-30T04:41:43.002Z,3.9
2017-10-30T04:42:43.049Z,6.6
2017-10-30T04:43:42.997Z,3.9
2017-10-30T04:44:42.991Z,1.8
2017-10-30T04:45:43.009Z,6.6
2017-10-30T04:46:42.961Z,0
2017-10-30T04:47:42.991Z,3.9
2017-10-30T04:48:43.003Z,1.8
2017-10-30T04:49:42.991Z,1.8
2017-10-30T04:50:43.026Z,3.9
2017-10-30T04:51:43.045Z,0
2017-10-30T04:52:42.984Z,3.9
2017-10-30T04:53:42.993Z,1.8
2017-10-30T04:54:43.007Z,1.8
2017-10-30T04:55:42.985Z,1.8
2017-10-30T04:56:43.011Z,1.8
2017-10-30T04:57:42.985Z,0
2017-10-30T04:58:42.950Z,1.8
2017-10-30T04:59:43.000Z,0
2017-10-30T05:00:42.992Z,6.6
2017-10-30T05:01:43.012Z,6.6
2017-10-30T05:02:43.018Z,3.9
2017-10-30T05:03:43.045Z,3.9
2017-10-30T05:04:42.980Z,6.6
2017-10-30T05:05:42.983Z,9.5
2017-10-30T05:06:42.970Z,3.9
2017-10-30T05:07:42.985Z,9.5
2017-10-30T05:08:43.016Z,1.8
2017-10-30T05:09:42.975Z,6.6
2017-10-30T05:10:42.974Z,3.9
2017-10-30T05:11:42.986Z,0
2017-10-30T05:12:43.025Z,1.8
2017-10-30T05:13:42.997Z,0
2017-10-30T05:14:42.989Z,1.8
2017-10-30T05:15:42.954Z,3.9
2017-10-30T05:20:43.000Z,1.8
2017-10-30T05:21:42.975Z,1.8
2017-10-30T05:22:43.012Z,9.5
2017-10-30T05:23:42.961Z,1.8
2017-10-30T05:24:43.005Z,3.9
2017-10-30T05:25:42.984Z,0
2017-10-30T05:26:43.017Z,0
2017-10-30T05:27:43.025Z,3.9
2017-10-30T05:28:42.997Z,0
2017-10-30T05:29:42.956Z,0
2017-10-30T05:30:42.925Z,0
2017-10-30T05:31:42.956Z,0
2017-10-30T05:32:42.994Z,0
2017-10-30T05:33:42.992Z,6.6
2017-10-30T05:34:42.971Z,3.9
2017-10-30T05:35:42.996Z,0
2017-10-30T05:36:42.937Z,1.8
2017-10-30T05:37:43.009Z,1.8
2017-10-30T05:38:42.956Z,0
2017-10-30T05:39:42.947Z,0
2017-10-30T05:40:42.956Z,0
2017-10-30T05:41:42.999Z,1.8
2017-10-30T05:42:43.016Z,0
2017-10-30T05:43:42.972Z,1.8
2017-10-30T05:44:42.950Z,0
2017-10-30T05:45:42.915Z,1.8
2017-10-30T05:46:43.032Z,0
2017-10-30T05:48:17.654Z,0
2017-10-30T05:48:42.974Z,0
2017-10-30T05:49:42.969Z,3.9
2017-10-30T05:50:42.959Z,3.9
2017-10-30T05:51:42.962Z,0
2017-10-30T05:52:43.034Z,1.8
2017-10-30T05:53:42.945Z,1.8
2017-10-30T05:54:42.925Z,0
2017-10-30T05:55:42.962Z,0
2017-10-30T05:56:42.982Z,9.5
2017-10-30T05:57:43.004Z,1.8
2017-10-30T05:58:42.935Z,1.8
2017-10-30T05:59:42.930Z,3.9
2017-10-30T06:00:42.979Z,0
2017-10-30T06:01:42.964Z,0
2017-10-30T06:02:42.966Z,0
2017-10-30T06:03:42.938Z,3.9
2017-10-30T06:04:42.950Z,0
2017-10-30T06:05:42.950Z,1.8
2017-10-30T06:06:42.989Z,1.8
2017-10-30T06:07:43.000Z,3.9
2017-10-30T06:08:42.954Z,1.8
2017-10-30T06:09:42.968Z,0
2017-10-30T06:10:42.951Z,0
2017-10-30T06:11:43.307Z,0
2017-10-30T06:12:43.037Z,1.8
2017-10-30T06:13:42.948Z,0
2017-10-30T06:14:42.969Z,0
2017-10-30T06:15:42.920Z,0
2017-10-30T06:16:43.020Z,0
2017-10-30T06:17:42.982Z,0
2017-10-30T06:18:42.962Z,0
2017-10-30T06:19:42.980Z,3.9
2017-10-30T06:20:42.953Z,0
2017-10-30T06:21:42.993Z,1.8
2017-10-30T06:22:43.042Z,0
2017-10-30T06:23:44.114Z,0
2017-10-30T06:24:42.950Z,0
2017-10-30T06:25:42.981Z,0
2017-10-30T06:26:42.972Z,1.8
2017-10-30T06:27:43.020Z,1.8
2017-10-30T06:28:43.004Z,1.8
2017-10-30T06:29:42.930Z,0
2017-10-30T06:30:42.919Z,0
2017-10-30T06:31:42.910Z,0
2017-10-30T06:32:42.995Z,0
2017-10-30T06:33:43.029Z,0
2017-10-30T06:34:42.926Z,0
2017-10-30T06:35:42.911Z,1.8
2017-10-30T06:36:42.939Z,0
2017-10-30T06:37:43.025Z,0
2017-10-30T06:38:42.913Z,1.8
2017-10-30T06:39:42.918Z,0
2017-10-30T06:40:42.918Z,0
2017-10-30T06:41:42.948Z,0
2017-10-30T06:42:43.062Z,0
2017-10-30T06:43:42.907Z,0
2017-10-30T06:44:42.912Z,0
2017-10-30T06:45:42.970Z,0
2017-10-30T06:46:42.901Z,0
2017-10-30T06:47:42.915Z,0
2017-10-30T06:48:42.927Z,0
2017-10-30T06:49:42.909Z,0
2017-10-30T06:50:42.936Z,0
2017-10-30T06:51:43.071Z,0
2017-10-30T06:52:42.970Z,0
2017-10-30T06:53:42.904Z,1.8
2017-10-30T06:54:42.940Z,3.9
2017-10-30T06:55:42.933Z,1.8
2017-10-30T06:56:42.924Z,0
2017-10-30T06:57:42.965Z,0
2017-10-30T06:58:42.937Z,0
2017-10-30T06:59:42.891Z,1.8
2017-10-30T07:00:42.938Z,0
2017-10-30T07:01:42.897Z,0
2017-10-30T07:02:42.928Z,0
2017-10-30T07:04:17.534Z,0
2017-10-30T07:04:42.927Z,0
2017-10-30T07:05:42.891Z,0
2017-10-30T07:06:42.958Z,0
2017-10-30T07:07:42.940Z,0
2017-10-30T07:08:42.973Z,0
2017-10-30T07:09:42.899Z,0
2017-10-30T07:10:42.926Z,0
2017-10-30T07:11:42.944Z,0
2017-10-30T07:12:42.985Z,0
2017-10-30T07:13:42.913Z,0
2017-10-30T07:14:42.960Z,0
2017-10-30T07:15:42.906Z,0
2017-10-30T07:16:42.896Z,0
2017-10-30T07:17:42.915Z,0
2017-10-30T07:18:42.931Z,1.8
2017-10-30T07:19:42.901Z,0
2017-10-30T07:20:42.960Z,0
2017-10-30T07:21:42.931Z,0
2017-10-30T07:22:42.950Z,0
2017-10-30T07:23:42.985Z,0
2017-10-30T07:24:42.953Z,0
2017-10-30T07:25:42.946Z,0
2017-10-30T07:26:42.887Z,1.8
2017-10-30T07:27:42.941Z,0
2017-10-30T07:28:42.982Z,0
2017-10-30T07:29:42.930Z,0
2017-10-30T07:30:42.886Z,0
2017-10-30T07:31:42.914Z,0
2017-10-30T07:32:42.966Z,3.9
2017-10-30T07:33:42.974Z,3.9
2017-10-30T07:34:42.929Z,1.8
2017-10-30T07:35:42.920Z,0
2017-10-30T07:36:42.928Z,0
2017-10-30T07:37:42.874Z,0
2017-10-30T07:38:42.936Z,1.8
2017-10-30T07:39:42.889Z,0
2017-10-30T07:40:42.903Z,3.9
2017-10-30T07:41:42.905Z,1.8
2017-10-30T07:42:42.908Z,0
2017-10-30T07:43:42.976Z,0
2017-10-30T07:44:42.908Z,0
2017-10-30T07:45:42.945Z,0
2017-10-30T07:46:42.893Z,0
2017-10-30T07:47:42.869Z,0
2017-10-30T07:48:42.963Z,1.8
2017-10-30T07:49:42.920Z,0
2017-10-30T07:50:42.877Z,6.6
2017-10-30T07:51:42.892Z,9.5
2017-10-30T07:52:42.875Z,6.6
2017-10-30T07:53:43.004Z,3.9
2017-10-30T07:54:42.890Z,9.5
2017-10-30T07:55:42.878Z,0
2017-10-30T07:56:42.869Z,6.6
2017-10-30T07:57:42.892Z,6.6
2017-10-30T07:58:43.047Z,3.9
2017-10-30T07:59:42.927Z,9.5
2017-10-30T08:00:42.895Z,12.4
2017-10-30T08:01:42.877Z,3.9
2017-10-30T08:02:42.898Z,1.8
2017-10-30T08:03:42.974Z,12.4
2017-10-30T08:04:42.877Z,9.5
2017-10-30T08:05:42.879Z,9.5
2017-10-30T08:06:42.878Z,12.4
2017-10-30T08:07:42.920Z,6.6
2017-10-30T08:08:42.917Z,15.4
2017-10-30T08:09:42.860Z,9.5
2017-10-30T08:10:42.906Z,6.6
2017-10-30T08:11:42.863Z,3.9
2017-10-30T08:12:42.880Z,6.6
2017-10-30T08:13:42.912Z,6.6
2017-10-30T08:14:42.870Z,12.4
2017-10-30T08:15:42.901Z,9.5
2017-10-30T08:16:42.935Z,12.4
2017-10-30T08:17:42.893Z,9.5
2017-10-30T08:18:42.915Z,12.4
2017-10-30T08:19:42.882Z,6.6
2017-10-30T08:20:42.888Z,9.5
2017-10-30T08:21:42.864Z,9.5
2017-10-30T08:22:42.890Z,9.5
2017-10-30T08:23:42.966Z,12.4
2017-10-30T08:24:42.856Z,12.4
2017-10-30T08:25:42.865Z,1.8
2017-10-30T08:26:42.892Z,1.8
2017-10-30T08:27:42.886Z,6.6
2017-10-30T08:28:42.896Z,0
2017-10-30T08:29:42.937Z,6.6
2017-10-30T08:30:42.927Z,9.5
2017-10-30T08:31:42.878Z,9.5
2017-10-30T08:32:42.847Z,12.4
2017-10-30T08:33:42.854Z,15.4
2017-10-30T08:34:42.921Z,9.5
2017-10-30T08:35:42.858Z,9.5
2017-10-30T08:36:42.886Z,12.4
2017-10-30T08:37:42.897Z,15.4
2017-10-30T08:38:42.901Z,18.3
2017-10-30T08:39:42.942Z,12.4
2017-10-30T08:40:42.879Z,12.4
2017-10-30T08:41:42.910Z,3.9
2017-10-30T08:42:42.858Z,9.5
2017-10-30T08:43:42.911Z,18.3
2017-10-30T08:44:42.936Z,12.4
2017-10-30T08:45:42.924Z,6.6
2017-10-30T08:46:42.882Z,6.6
2017-10-30T08:47:42.884Z,6.6
2017-10-30T08:48:42.887Z,6.6
2017-10-30T08:49:42.957Z,3.9
2017-10-30T08:50:42.905Z,12.4
2017-10-30T08:51:42.890Z,9.5
2017-10-30T08:52:42.864Z,9.5
2017-10-30T08:53:42.859Z,3.9
2017-10-30T08:54:42.968Z,6.6
2017-10-30T08:55:42.879Z,3.9
2017-10-30T08:56:42.882Z,6.6
2017-10-30T08:57:42.934Z,9.5
2017-10-30T08:58:42.908Z,12.4
2017-10-30T08:59:42.901Z,1.8
2017-10-30T09:00:42.873Z,6.6
2017-10-30T09:01:42.854Z,12.4
2017-10-30T09:02:42.852Z,12.4
2017-10-30T09:03:42.874Z,6.6
2017-10-30T09:04:42.973Z,6.6
2017-10-30T09:05:42.864Z,0
2017-10-30T09:06:42.886Z,6.6
2017-10-30T09:07:42.907Z,6.6
2017-10-30T09:08:42.862Z,3.9
2017-10-30T09:09:42.993Z,6.6
2017-10-30T09:10:42.873Z,6.6
2017-10-30T09:11:42.868Z,9.5
2017-10-30T09:12:42.885Z,3.9
2017-10-30T09:13:42.891Z,6.6
2017-10-30T09:14:42.904Z,6.6
2017-10-30T09:15:42.857Z,9.5
2017-10-30T09:16:42.880Z,9.5
2017-10-30T09:17:42.891Z,9.5
2017-10-30T09:18:42.871Z,9.5
2017-10-30T09:19:42.910Z,12.4
2017-10-30T09:20:42.855Z,6.6
2017-10-30T09:21:42.841Z,12.4
2017-10-30T09:22:42.878Z,9.5
2017-10-30T09:23:42.888Z,9.5
2017-10-30T09:24:42.942Z,15.4
2017-10-30T09:25:42.848Z,12.4
2017-10-30T09:26:42.862Z,12.4
2017-10-30T09:27:42.852Z,12.4
2017-10-30T09:28:42.852Z,3.9
2017-10-30T09:29:42.892Z,6.6
2017-10-30T09:30:42.880Z,15.4
2017-10-30T09:31:42.824Z,6.6
2017-10-30T09:32:42.871Z,9.5
2017-10-30T09:33:42.876Z,6.6
2017-10-30T09:34:42.920Z,3.9
2017-10-30T09:35:42.864Z,3.9
2017-10-30T09:36:42.891Z,6.6
2017-10-30T09:37:42.855Z,6.6
2017-10-30T09:38:42.906Z,9.5
2017-10-30T09:39:42.956Z,9.5
2017-10-30T09:40:42.895Z,3.9
2017-10-30T09:41:42.891Z,9.5
2017-10-30T09:43:17.496Z,6.6
2017-10-30T09:43:42.857Z,15.4
2017-10-30T09:44:42.935Z,3.9
2017-10-30T09:45:42.837Z,6.6
2017-10-30T09:46:42.863Z,15.4
2017-10-30T09:47:42.851Z,15.4
2017-10-30T09:48:42.873Z,9.5
2017-10-30T09:49:42.968Z,15.4
2017-10-30T09:50:42.849Z,6.6
2017-10-30T09:51:42.856Z,6.6
2017-10-30T09:52:42.871Z,6.6
2017-10-30T09:53:42.883Z,9.5
2017-10-30T09:54:42.900Z,9.5
2017-10-30T09:55:42.898Z,9.5
2017-10-30T09:56:42.843Z,12.4
2017-10-30T09:57:42.871Z,3.9
2017-10-30T09:58:42.878Z,6.6
2017-10-30T09:59:42.843Z,9.5
2017-10-30T10:00:42.888Z,6.6
2017-10-30T10:01:42.908Z,6.6
2017-10-30T10:02:42.893Z,9.5
2017-10-30T10:03:42.872Z,9.5
2017-10-30T10:04:42.828Z,3.9
2017-10-30T10:05:42.924Z,1.8
2017-10-30T10:06:42.848Z,1.8
2017-10-30T10:07:42.868Z,1.8
2017-10-30T10:08:42.853Z,3.9
2017-10-30T10:09:42.874Z,6.6
2017-10-30T10:10:42.921Z,3.9
2017-10-30T10:11:42.874Z,3.9
2017-10-30T10:12:42.874Z,6.6
2017-10-30T10:13:42.864Z,6.6
2017-10-30T10:14:42.879Z,1.8
2017-10-30T10:15:42.916Z,3.9
2017-10-30T10:16:42.865Z,9.5
2017-10-30T10:17:42.859Z,6.6
2017-10-30T10:18:42.855Z,12.4
2017-10-30T10:19:42.871Z,9.5
2017-10-30T10:20:42.967Z,9.5
2017-10-30T10:21:42.854Z,9.5
2017-10-30T10:22:42.861Z,9.5
2017-10-30T10:23:42.842Z,6.6
2017-10-30T10:24:42.894Z,3.9
2017-10-30T10:25:42.935Z,6.6
2017-10-30T10:26:42.871Z,3.9
2017-10-30T10:27:42.900Z,9.5
2017-10-30T10:28:42.888Z,12.4
2017-10-30T10:29:42.867Z,3.9
2017-10-30T10:30:42.970Z,12.4
2017-10-30T10:31:42.879Z,6.6
2017-10-30T10:32:42.897Z,9.5
2017-10-30T10:33:42.853Z,9.5
2017-10-30T10:34:42.839Z,6.6
2017-10-30T10:35:42.920Z,9.5
2017-10-30T10:36:42.861Z,1.8
2017-10-30T10:37:42.892Z,6.6
2017-10-30T10:38:42.854Z,0
2017-10-30T10:39:42.877Z,0
2017-10-30T10:40:42.962Z,9.5
2017-10-30T10:41:42.898Z,6.6
2017-10-30T10:42:42.856Z,1.8
2017-10-30T10:43:42.853Z,6.6
2017-10-30T10:44:42.878Z,1.8
2017-10-30T10:45:42.913Z,3.9
2017-10-30T10:46:42.865Z,9.5
2017-10-30T10:47:42.890Z,1.8
2017-10-30T10:48:42.852Z,12.4
2017-10-30T10:49:42.884Z,15.4
2017-10-30T10:50:42.940Z,3.9
2017-10-30T10:51:42.877Z,3.9
2017-10-30T10:52:42.866Z,3.9
2017-10-30T10:53:42.864Z,3.9
2017-10-30T10:54:42.894Z,0
2017-10-30T10:55:42.929Z,1.8
2017-10-30T10:56:42.866Z,6.6
2017-10-30T10:57:42.834Z,3.9
2017-10-30T10:58:42.870Z,6.6
2017-10-30T10:59:42.848Z,9.5
2017-10-30T11:00:42.897Z,9.5
2017-10-30T11:01:42.906Z,9.5
2017-10-30T11:02:42.878Z,1.8
2017-10-30T11:03:42.883Z,9.5
2017-10-30T11:04:42.862Z,3.9
2017-10-30T11:05:42.897Z,12.4
2017-10-30T11:06:42.888Z,6.6
2017-10-30T11:07:42.858Z,3.9
2017-10-30T11:08:42.878Z,12.4
2017-10-30T11:09:42.850Z,6.6
2017-10-30T11:10:42.860Z,3.9
2017-10-30T11:11:42.908Z,6.6
2017-10-30T11:12:42.876Z,6.6
2017-10-30T11:13:42.872Z,3.9
2017-10-30T11:14:42.841Z,1.8
2017-10-30T11:15:42.941Z,3.9
2017-10-30T11:16:42.909Z,3.9
2017-10-30T11:17:42.890Z,12.4
2017-10-30T11:18:42.837Z,9.5
2017-10-30T11:19:42.875Z,6.6
2017-10-30T11:20:42.927Z,12.4
2017-10-30T11:21:42.948Z,6.6
2017-10-30T11:22:42.874Z,3.9
2017-10-30T11:23:42.852Z,6.6
2017-10-30T11:24:42.844Z,3.9
2017-10-30T11:25:42.849Z,0
2017-10-30T11:26:42.927Z,6.6
2017-10-30T11:27:42.840Z,1.8
2017-10-30T11:28:42.878Z,6.6
2017-10-30T11:29:42.870Z,1.8
2017-10-30T11:30:42.827Z,0
2017-10-30T11:31:42.954Z,1.8
2017-10-30T11:32:42.838Z,0
2017-10-30T11:33:42.885Z,3.9
2017-10-30T11:34:42.906Z,3.9
2017-10-30T11:35:42.912Z,3.9
2017-10-30T11:36:59.472Z,0
2017-10-30T11:37:43.612Z,0
2017-10-30T11:38:45.354Z,6.6
2017-10-30T11:39:42.928Z,3.9
2017-10-30T11:40:45.135Z,1.8
2017-10-30T11:41:43.081Z,0
2017-10-30T11:42:42.917Z,0
2017-10-30T11:43:42.839Z,3.9
2017-10-30T11:44:42.887Z,1.8
2017-10-30T11:45:42.792Z,1.8
2017-10-30T11:46:42.952Z,1.8
2017-10-30T11:47:42.869Z,1.8
2017-10-30T11:48:42.851Z,0
2017-10-30T11:49:42.922Z,0
2017-10-30T11:50:42.850Z,0
2017-10-30T11:51:42.845Z,0
2017-10-30T11:52:42.940Z,3.9
2017-10-30T11:53:42.837Z,1.8
2017-10-30T11:54:42.837Z,0
2017-10-30T11:55:42.882Z,0
2017-10-30T11:56:42.865Z,1.8
2017-10-30T11:57:42.899Z,1.8
2017-10-30T11:58:42.859Z,1.8
2017-10-30T11:59:45.202Z,1.8
2017-10-30T12:00:44.589Z,3.9
2017-10-30T12:01:44.580Z,3.9
2017-10-30T12:02:43.022Z,1.8
2017-10-30T12:03:42.981Z,1.8
2017-10-30T12:04:43.245Z,6.6
2017-10-30T12:05:43.056Z,0
2017-10-30T12:06:47.111Z,0
2017-10-30T12:07:44.324Z,0
2017-10-30T12:08:43.191Z,0
2017-10-30T12:09:42.945Z,0
2017-10-30T12:10:43.983Z,0
2017-10-30T12:11:43.107Z,0
2017-10-30T12:12:43.211Z,3.9
2017-10-30T12:13:43.759Z,3.9
2017-10-30T12:14:43.004Z,6.6
2017-10-30T12:15:42.806Z,3.9
2017-10-30T12:16:42.843Z,1.8
2017-10-30T12:17:42.893Z,0
2017-10-30T12:18:43.724Z,6.6
2017-10-30T12:19:44.230Z,6.6
2017-10-30T12:20:43.079Z,9.5
2017-10-30T12:21:43.117Z,6.6
2017-10-30T12:22:43.090Z,9.5
2017-10-30T12:24:03.518Z,9.5
2017-10-30T12:24:43.190Z,3.9
2017-10-30T12:25:45.342Z,3.9
2017-10-30T12:26:43.089Z,1.8
2017-10-30T12:27:45.416Z,12.4
2017-10-30T12:28:44.326Z,9.5
2017-10-30T12:29:43.127Z,9.5
2017-10-30T12:30:44.944Z,3.9
2017-10-30T12:31:43.419Z,6.6
2017-10-30T12:32:46.090Z,6.6
2017-10-30T12:33:42.912Z,3.9
2017-10-30T12:34:43.243Z,6.6
2017-10-30T12:35:43.305Z,6.6
2017-10-30T12:36:44.846Z,3.9
2017-10-30T12:37:43.965Z,3.9
2017-10-30T12:38:43.219Z,9.5
2017-10-30T12:39:43.199Z,12.4
2017-10-30T12:40:42.832Z,12.4
2017-10-30T12:41:42.875Z,12.4
2017-10-30T12:42:42.816Z,9.5
2017-10-30T12:43:46.164Z,3.9
2017-10-30T12:44:43.021Z,9.5
2017-10-30T12:45:43.014Z,3.9
2017-10-30T12:46:43.354Z,6.6
2017-10-30T12:47:45.107Z,15.4
2017-10-30T12:48:45.162Z,12.4
2017-10-30T12:49:43.235Z,9.5
2017-10-30T12:50:42.951Z,9.5
2017-10-30T12:51:45.117Z,3.9
2017-10-30T12:52:43.232Z,12.4
2017-10-30T12:53:43.537Z,6.6
2017-10-30T12:54:43.907Z,12.4
2017-10-30T12:55:45.000Z,3.9
2017-10-30T12:56:42.997Z,6.6
2017-10-30T12:57:43.266Z,9.5
2017-10-30T12:58:43.180Z,12.4
2017-10-30T12:59:43.191Z,9.5
2017-10-30T13:00:43.049Z,1.8
2017-10-30T13:01:43.278Z,9.5
2017-10-30T13:02:43.396Z,0
2017-10-30T13:03:43.170Z,6.6
2017-10-30T13:04:42.840Z,6.6
2017-10-30T13:05:42.836Z,9.5
2017-10-30T13:06:42.857Z,3.9
2017-10-30T13:07:42.845Z,6.6
2017-10-30T13:08:42.934Z,12.4
2017-10-30T13:09:42.869Z,9.5
2017-10-30T13:10:42.853Z,3.9
2017-10-30T13:11:42.859Z,9.5
2017-10-30T13:12:42.861Z,3.9
2017-10-30T13:13:42.974Z,1.8
2017-10-30T13:14:42.870Z,9.5
2017-10-30T13:15:42.801Z,6.6
2017-10-30T13:16:42.836Z,9.5
2017-10-30T13:17:42.839Z,9.5
2017-10-30T13:18:42.956Z,6.6
2017-10-30T13:19:42.853Z,9.5
2017-10-30T13:20:42.820Z,6.6
2017-10-30T13:21:42.868Z,3.9
2017-10-30T13:22:42.845Z,3.9
2017-10-30T13:23:42.902Z,0
2017-10-30T13:24:42.846Z,6.6
2017-10-30T13:25:42.866Z,3.9
2017-10-30T13:26:42.874Z,6.6
2017-10-30T13:27:42.824Z,3.9
2017-10-30T13:28:42.906Z,6.6
2017-10-30T13:29:42.893Z,3.9
2017-10-30T13:30:45.787Z,0
2017-10-30T13:31:42.851Z,0
2017-10-30T13:32:42.838Z,1.8
2017-10-30T13:33:42.849Z,3.9
2017-10-30T13:34:42.879Z,3.9
2017-10-30T13:35:42.830Z,1.8
2017-10-30T13:36:42.845Z,0
2017-10-30T13:37:42.859Z,0
2017-10-30T13:38:42.837Z,1.8
2017-10-30T13:39:42.875Z,3.9
2017-10-30T13:40:42.835Z,3.9
2017-10-30T13:41:42.832Z,1.8
2017-10-30T13:42:42.843Z,3.9
2017-10-30T13:43:42.819Z,3.9
2017-10-30T13:44:42.894Z,3.9
2017-10-30T13:45:44.652Z,3.9
2017-10-30T13:46:42.810Z,1.8
2017-10-30T13:47:42.825Z,0
2017-10-30T13:48:42.857Z,3.9
2017-10-30T13:49:42.868Z,3.9
2017-10-30T13:50:42.839Z,3.9
2017-10-30T13:51:42.825Z,3.9
2017-10-30T13:52:42.880Z,3.9
2017-10-30T13:53:42.852Z,3.9
2017-10-30T13:54:42.886Z,1.8
2017-10-30T13:55:42.853Z,0
2017-10-30T13:56:42.859Z,0
2017-10-30T13:57:42.848Z,0
2017-10-30T13:58:42.860Z,0
2017-10-30T13:59:42.864Z,0
2017-10-30T14:00:42.850Z,0
2017-10-30T14:01:43.196Z,0
2017-10-30T14:02:42.818Z,0
2017-10-30T14:03:42.829Z,0
2017-10-30T14:04:42.913Z,0
2017-10-30T14:05:42.821Z,0
2017-10-30T14:06:42.822Z,0
2017-10-30T14:07:42.831Z,0